createdAt,value
2023-04-28T00:00:09.078Z,99943.73
2023-04-28T00:00:30.849Z,99940.30
2023-04-28T00:00:52.645Z,99939.56
2023-04-28T00:01:14.429Z,99942.58
2023-04-28T00:01:36.604Z,99940.16
2023-04-28T00:01:58.553Z,99940.90
2023-04-28T00:02:20.513Z,99939.33
2023-04-28T00:02:42.992Z,99938.34
2023-04-28T00:03:04.965Z,99933.94
2023-04-28T00:03:28.605Z,99937.36
2023-04-28T00:03:50.605Z,99934.51
2023-04-28T00:04:12.938Z,99933.19
2023-04-28T00:04:35.428Z,99936.77
2023-04-28T00:04:58.859Z,99933.73
2023-04-28T00:05:21.284Z,99933.54
2023-04-28T00:05:43.337Z,99933.54
2023-04-28T00:06:06.245Z,99931.11
2023-04-28T00:06:28.462Z,99932.58
2023-04-28T00:06:50.147Z,99931.92
2023-04-28T00:07:11.871Z,99934.25
2023-04-28T00:07:33.644Z,99931.05
2023-04-28T00:07:55.535Z,99936.63
2023-04-28T00:08:17.530Z,99933.37
2023-04-28T00:08:39.614Z,99931.79
2023-04-28T00:09:01.500Z,99931.76
2023-04-28T00:09:23.264Z,99933.67
2023-04-28T00:09:45.068Z,99932.42
2023-04-28T00:10:07.364Z,99933.13
2023-04-28T00:10:29.353Z,99937.54
2023-04-28T00:10:51.147Z,99937.14
2023-04-28T00:11:12.923Z,99932.30
2023-04-28T00:11:34.705Z,99932.71
2023-04-28T00:11:56.475Z,99935.39
2023-04-28T00:12:18.194Z,99933.48
2023-04-28T00:12:39.963Z,99936.48
2023-04-28T00:13:01.741Z,99933.99
2023-04-28T00:13:23.531Z,99936.66
2023-04-28T00:13:45.254Z,99937.16
2023-04-28T00:14:06.976Z,99937.35
2023-04-28T00:14:28.784Z,99938.22
2023-04-28T00:14:50.669Z,99937.02
2023-04-28T00:15:13.537Z,99936.58
2023-04-28T00:15:35.466Z,99937.28
2023-04-28T00:15:57.471Z,99939.41
2023-04-28T00:16:19.264Z,99939.05
2023-04-28T00:16:41.728Z,99939.20
2023-04-28T00:17:03.611Z,99937.23
2023-04-28T00:17:25.552Z,99938.67
2023-04-28T00:17:47.425Z,99940.69
2023-04-28T00:18:09.444Z,99938.88
2023-04-28T00:18:31.625Z,99940.69
2023-04-28T00:18:53.565Z,99940.52
2023-04-28T00:19:15.352Z,99940.30
2023-04-28T00:19:38.853Z,99941.60
2023-04-28T00:20:00.760Z,99939.80
2023-04-28T00:20:22.547Z,99939.58
2023-04-28T00:20:44.645Z,99941.46
2023-04-28T00:21:06.630Z,99945.19
2023-04-28T00:21:29.236Z,99947.77
2023-04-28T00:21:51.014Z,99946.15
2023-04-28T00:22:12.800Z,99947.83
2023-04-28T00:22:34.579Z,99946.74
2023-04-28T00:22:56.251Z,99946.52
2023-04-28T00:23:17.954Z,99947.84
2023-04-28T00:23:39.732Z,99947.17
2023-04-28T00:24:01.501Z,99948.79
2023-04-28T00:24:23.404Z,99950.05
2023-04-28T00:24:45.406Z,99948.79
2023-04-28T00:25:08.610Z,99950.35
2023-04-28T00:25:30.598Z,99951.02
2023-04-28T00:25:52.895Z,99954.46
2023-04-28T00:26:14.947Z,99951.52
2023-04-28T00:26:37.279Z,99951.32
2023-04-28T00:26:59.066Z,99951.40
2023-04-28T00:27:21.066Z,99951.99
2023-04-28T00:27:42.839Z,99951.76
2023-04-28T00:28:04.630Z,99951.46
2023-04-28T00:28:34.099Z,99948.73
2023-04-28T00:28:56.685Z,99949.38
2023-04-28T00:29:18.468Z,99948.15
2023-04-28T00:29:40.253Z,99947.46
2023-04-28T00:30:02.767Z,99949.40
2023-04-28T00:30:25.458Z,99949.89
2023-04-28T00:30:47.442Z,99945.86
2023-04-28T00:31:15.894Z,99948.36
2023-04-28T00:31:37.933Z,99949.49
2023-04-28T00:31:59.781Z,99953.06
2023-04-28T00:32:21.988Z,99953.52
2023-04-28T00:32:43.798Z,99952.57
2023-04-28T00:33:06.218Z,99952.25
2023-04-28T00:33:28.118Z,99952.86
2023-04-28T00:33:49.909Z,99951.80
2023-04-28T00:34:14.717Z,99955.59
2023-04-28T00:34:37.680Z,99957.35
2023-04-28T00:34:59.421Z,99949.94
2023-04-28T00:35:21.333Z,99956.21
2023-04-28T00:35:43.222Z,99955.01
2023-04-28T00:36:05.620Z,99956.83
2023-04-28T00:36:32.220Z,99956.88
2023-04-28T00:36:54.099Z,99957.23
2023-04-28T00:37:16.461Z,99957.31
2023-04-28T00:37:38.587Z,99958.47
2023-04-28T00:38:00.370Z,99953.62
2023-04-28T00:38:25.582Z,99957.69
2023-04-28T00:38:47.416Z,99955.23
2023-04-28T00:39:10.242Z,99953.13
2023-04-28T00:39:32.522Z,99953.29
2023-04-28T00:39:57.374Z,99953.16
2023-04-28T00:40:19.380Z,99952.51
2023-04-28T00:40:41.255Z,99953.09
2023-04-28T00:41:03.346Z,99953.86
2023-04-28T00:41:25.127Z,99951.03
2023-04-28T00:41:46.833Z,99951.44
2023-04-28T00:42:08.596Z,99950.73
2023-04-28T00:42:30.672Z,99950.77
2023-04-28T00:42:52.390Z,99949.90
2023-04-28T00:43:14.458Z,99949.58
2023-04-28T00:43:46.594Z,99949.13
2023-04-28T00:44:08.563Z,99949.20
2023-04-28T00:44:30.288Z,99950.34
2023-04-28T00:44:52.137Z,99947.13
2023-04-28T00:45:13.914Z,99949.53
2023-04-28T00:45:36.168Z,99944.73
2023-04-28T00:45:58.114Z,99947.39
2023-04-28T00:46:24.964Z,99945.95
2023-04-28T00:46:48.016Z,99947.92
2023-04-28T00:47:10.415Z,99947.17
2023-04-28T00:47:35.219Z,99948.48
2023-04-28T00:47:59.000Z,99950.54
2023-04-28T00:48:20.918Z,99947.41
2023-04-28T00:48:42.677Z,99951.31
2023-04-28T00:49:04.448Z,99950.27
2023-04-28T00:49:26.456Z,99949.38
2023-04-28T00:49:49.856Z,99947.69
2023-04-28T00:50:11.741Z,99948.13
2023-04-28T00:50:33.521Z,99949.77
2023-04-28T00:50:55.320Z,99951.88
2023-04-28T00:51:17.702Z,99952.52
2023-04-28T00:51:40.237Z,99950.95
2023-04-28T00:52:05.056Z,99951.21
2023-04-28T00:52:26.784Z,99951.87
2023-04-28T00:52:48.523Z,99949.27
2023-04-28T00:53:10.921Z,99951.60
2023-04-28T00:53:32.808Z,99953.05
2023-04-28T00:53:54.714Z,99952.55
2023-04-28T00:54:16.826Z,99950.54
2023-04-28T00:54:38.980Z,99950.80
2023-04-28T00:55:01.103Z,99950.55
2023-04-28T00:55:22.966Z,99951.69
2023-04-28T00:55:44.682Z,99953.15
2023-04-28T00:56:06.835Z,99949.55
2023-04-28T00:56:31.119Z,99950.73
2023-04-28T00:56:53.062Z,99950.08
2023-04-28T00:57:14.950Z,99950.66
2023-04-28T00:57:36.745Z,99946.11
2023-04-28T00:57:58.723Z,99950.48
2023-04-28T00:58:20.626Z,99946.21
2023-04-28T00:58:42.395Z,99948.30
2023-04-28T00:59:04.174Z,99952.36
2023-04-28T00:59:26.066Z,99947.83
2023-04-28T00:59:47.952Z,99948.77
2023-04-28T01:00:10.040Z,99950.34
2023-04-28T01:00:31.929Z,99951.97
2023-04-28T01:00:53.647Z,99952.10
2023-04-28T01:01:15.517Z,99952.20
2023-04-28T01:01:37.886Z,99953.19
2023-04-28T01:02:00.215Z,99952.38
2023-04-28T01:02:22.350Z,99952.95
2023-04-28T01:02:44.584Z,99952.48
2023-04-28T01:03:06.926Z,99950.92
2023-04-28T01:03:29.688Z,99950.66
2023-04-28T01:03:51.994Z,99952.27
2023-04-28T01:04:14.276Z,99950.34
2023-04-28T01:04:37.245Z,99949.77
2023-04-28T01:05:00.112Z,99950.12
2023-04-28T01:05:21.884Z,99948.20
2023-04-28T01:05:43.846Z,99950.75
2023-04-28T01:06:06.388Z,99949.91
2023-04-28T01:06:28.867Z,99951.27
2023-04-28T01:06:51.280Z,99951.91
2023-04-28T01:07:13.223Z,99954.05
2023-04-28T01:07:35.138Z,99955.80
2023-04-28T01:07:57.538Z,99954.95
2023-04-28T01:08:23.329Z,99952.16
2023-04-28T01:08:47.962Z,99954.50
2023-04-28T01:09:11.085Z,99953.27
2023-04-28T01:09:33.103Z,99954.58
2023-04-28T01:09:55.460Z,99956.73
2023-04-28T01:10:21.131Z,99959.73
2023-04-28T01:10:46.088Z,99957.75
2023-04-28T01:11:15.244Z,99958.59
2023-04-28T01:12:00.243Z,99957.51
2023-04-28T01:12:34.084Z,99959.73
2023-04-28T01:12:55.876Z,99959.34
2023-04-28T01:13:17.862Z,99961.89
2023-04-28T01:13:39.961Z,99961.61
2023-04-28T01:14:01.736Z,99959.29
2023-04-28T01:14:25.884Z,99960.64
2023-04-28T01:14:47.964Z,99958.58
2023-04-28T01:15:16.508Z,99961.31
2023-04-28T01:15:38.758Z,99960.25
2023-04-28T01:16:00.966Z,99961.80
2023-04-28T01:16:23.105Z,99964.10
2023-04-28T01:16:45.414Z,99962.20
2023-04-28T01:17:07.779Z,99961.23
2023-04-28T01:17:29.854Z,99962.23
2023-04-28T01:17:52.118Z,99959.44
2023-04-28T01:18:13.947Z,99966.46
2023-04-28T01:18:35.940Z,99963.70
2023-04-28T01:18:57.924Z,99963.44
2023-04-28T01:19:22.547Z,99968.05
2023-04-28T01:19:44.511Z,99967.91
2023-04-28T01:20:06.860Z,99966.70
2023-04-28T01:20:28.644Z,99970.08
2023-04-28T01:20:50.529Z,99970.08
2023-04-28T01:21:12.415Z,99967.64
2023-04-28T01:21:34.507Z,99969.94
2023-04-28T01:22:02.733Z,99973.23
2023-04-28T01:22:25.236Z,99974.02
2023-04-28T01:22:47.022Z,99973.66
2023-04-28T01:23:13.014Z,99973.38
2023-04-28T01:23:34.793Z,99975.61
2023-04-28T01:23:57.796Z,99976.06
2023-04-28T01:24:19.716Z,99975.48
2023-04-28T01:24:42.909Z,99976.92
2023-04-28T01:25:04.938Z,99978.11
2023-04-28T01:25:27.059Z,99981.23
2023-04-28T01:25:48.870Z,99978.80
2023-04-28T01:26:11.195Z,99977.16
2023-04-28T01:26:32.947Z,99980.24
2023-04-28T01:26:56.385Z,99976.98
2023-04-28T01:27:18.155Z,99981.29
2023-04-28T01:27:40.033Z,99983.18
2023-04-28T01:28:01.890Z,99980.14
2023-04-28T01:28:23.710Z,99979.67
2023-04-28T01:28:45.597Z,99981.67
2023-04-28T01:29:07.790Z,99984.95
2023-04-28T01:29:29.779Z,99982.98
2023-04-28T01:29:51.561Z,99984.34
2023-04-28T01:30:13.451Z,99982.09
2023-04-28T01:30:35.958Z,99982.86
2023-04-28T01:30:57.751Z,99986.18
2023-04-28T01:31:19.578Z,99983.92
2023-04-28T01:31:41.732Z,99983.23
2023-04-28T01:32:03.783Z,99984.50
2023-04-28T01:32:25.715Z,99986.79
2023-04-28T01:32:47.516Z,99984.38
2023-04-28T01:33:09.572Z,99987.03
2023-04-28T01:33:31.663Z,99989.42
2023-04-28T01:33:53.442Z,99987.02
2023-04-28T01:34:15.304Z,99989.46
2023-04-28T01:34:37.329Z,99990.75
2023-04-28T01:35:00.860Z,99989.27
2023-04-28T01:35:22.629Z,99989.01
2023-04-28T01:35:44.408Z,99992.58
2023-04-28T01:36:06.442Z,99991.85
2023-04-28T01:36:28.800Z,99993.71
2023-04-28T01:36:50.886Z,99993.17
2023-04-28T01:37:12.585Z,99992.45
2023-04-28T01:37:34.353Z,99990.96
2023-04-28T01:37:56.246Z,99991.62
2023-04-28T01:38:18.034Z,99993.19
2023-04-28T01:38:39.810Z,99992.75
2023-04-28T01:39:01.597Z,99992.70
2023-04-28T01:39:23.586Z,99994.26
2023-04-28T01:39:45.583Z,99995.46
2023-04-28T01:40:08.292Z,99993.86
2023-04-28T01:40:30.271Z,99992.55
2023-04-28T01:40:54.302Z,99994.48
2023-04-28T01:41:16.398Z,99998.95
2023-04-28T01:41:38.137Z,99992.95
2023-04-28T01:41:59.842Z,99995.17
2023-04-28T01:42:21.645Z,99994.47
2023-04-28T01:42:43.530Z,99996.71
2023-04-28T01:43:05.321Z,99996.70
2023-04-28T01:43:27.104Z,99998.54
2023-04-28T01:43:48.988Z,99994.01
2023-04-28T01:44:12.101Z,99995.55
2023-04-28T01:44:33.888Z,99997.72
2023-04-28T01:44:55.686Z,99994.52
2023-04-28T01:45:17.451Z,99994.33
2023-04-28T01:45:39.143Z,99996.67
2023-04-28T01:46:00.940Z,99994.41
2023-04-28T01:46:22.848Z,99993.14
2023-04-28T01:46:46.026Z,99994.37
2023-04-28T01:47:08.212Z,99993.55
2023-04-28T01:47:30.469Z,99993.99
2023-04-28T01:47:52.685Z,99994.39
2023-04-28T01:48:14.597Z,99994.65
2023-04-28T01:48:36.379Z,99996.48
2023-04-28T01:48:58.166Z,99995.23
2023-04-28T01:49:20.166Z,99998.08
2023-04-28T01:49:41.936Z,99997.45
2023-04-28T01:50:03.821Z,99996.13
2023-04-28T01:50:25.815Z,100000.33
2023-04-28T01:50:47.597Z,99998.23
2023-04-28T01:51:09.388Z,99998.89
2023-04-28T01:51:33.288Z,99999.79
2023-04-28T01:51:55.094Z,99998.19
2023-04-28T01:52:16.866Z,99996.50
2023-04-28T01:52:38.973Z,99996.79
2023-04-28T01:53:00.858Z,99994.94
2023-04-28T01:53:22.657Z,99996.94
2023-04-28T01:53:44.426Z,100000.91
2023-04-28T01:54:06.638Z,99997.87
2023-04-28T01:54:28.612Z,99998.52
2023-04-28T01:54:50.910Z,99998.45
2023-04-28T01:55:12.725Z,99996.53
2023-04-28T01:55:34.678Z,99999.33
2023-04-28T01:55:56.786Z,99997.05
2023-04-28T01:56:18.657Z,99998.73
2023-04-28T01:56:40.763Z,99994.78
2023-04-28T01:57:03.488Z,99997.61
2023-04-28T01:57:26.263Z,99997.28
2023-04-28T01:57:48.091Z,99998.47
2023-04-28T01:58:10.035Z,99997.00
2023-04-28T01:58:31.930Z,99996.27
2023-04-28T01:58:53.818Z,99998.37
2023-04-28T01:59:16.426Z,100000.54
2023-04-28T01:59:38.195Z,99997.88
2023-04-28T02:00:00.817Z,99997.23
2023-04-28T02:00:22.935Z,99997.52
2023-04-28T02:00:45.852Z,99998.28
2023-04-28T02:01:08.522Z,99998.05
2023-04-28T02:01:30.358Z,100000.13
2023-04-28T02:01:52.360Z,99999.85
2023-04-28T02:02:14.362Z,100001.40
2023-04-28T02:02:37.253Z,100002.84
2023-04-28T02:02:59.320Z,100004.77
2023-04-28T02:03:21.809Z,100003.04
2023-04-28T02:03:44.004Z,100004.08
2023-04-28T02:04:06.044Z,100004.86
2023-04-28T02:04:28.314Z,100004.64
2023-04-28T02:04:50.501Z,100007.38
2023-04-28T02:05:12.642Z,100006.80
2023-04-28T02:05:34.883Z,100007.20
2023-04-28T02:05:56.578Z,100011.43
2023-04-28T02:06:18.396Z,100013.71
2023-04-28T02:06:40.180Z,100012.31
2023-04-28T02:07:01.980Z,100012.52
2023-04-28T02:07:23.953Z,100013.14
2023-04-28T02:07:46.555Z,100011.73
2023-04-28T02:08:08.340Z,100013.16
2023-04-28T02:08:30.136Z,100012.92
2023-04-28T02:08:52.011Z,100014.33
2023-04-28T02:09:13.823Z,100011.05
2023-04-28T02:09:35.685Z,100011.96
2023-04-28T02:09:57.421Z,100011.28
2023-04-28T02:10:19.352Z,100014.33
2023-04-28T02:10:41.751Z,100014.14
2023-04-28T02:11:04.403Z,100013.73
2023-04-28T02:11:26.354Z,100014.50
2023-04-28T02:11:51.402Z,100014.34
2023-04-28T02:12:13.294Z,100015.77
2023-04-28T02:12:35.058Z,100017.61
2023-04-28T02:12:56.854Z,100018.00
2023-04-28T02:13:18.644Z,100018.88
2023-04-28T02:13:40.457Z,100022.20
2023-04-28T02:14:02.312Z,100021.58
2023-04-28T02:14:24.200Z,100023.72
2023-04-28T02:14:46.290Z,100024.99
2023-04-28T02:15:09.113Z,100025.69
2023-04-28T02:15:30.881Z,100023.71
2023-04-28T02:15:52.654Z,100026.45
2023-04-28T02:16:16.335Z,100026.48
2023-04-28T02:16:38.279Z,100029.96
2023-04-28T02:17:00.162Z,100031.84
2023-04-28T02:17:21.961Z,100030.11
2023-04-28T02:17:43.882Z,100028.30
2023-04-28T02:18:05.969Z,100031.20
2023-04-28T02:18:28.123Z,100032.87
2023-04-28T02:18:50.224Z,100032.23
2023-04-28T02:19:12.101Z,100033.45
2023-04-28T02:19:33.807Z,100033.05
2023-04-28T02:19:56.914Z,100035.10
2023-04-28T02:20:18.783Z,100034.58
2023-04-28T02:20:41.091Z,100035.36
2023-04-28T02:21:11.082Z,100038.42
2023-04-28T02:21:33.242Z,100037.33
2023-04-28T02:21:55.033Z,100035.29
2023-04-28T02:22:16.777Z,100038.63
2023-04-28T02:22:38.509Z,100037.48
2023-04-28T02:23:01.512Z,100038.39
2023-04-28T02:23:23.515Z,100040.59
2023-04-28T02:23:45.284Z,100041.74
2023-04-28T02:24:07.895Z,100041.61
2023-04-28T02:24:29.793Z,100039.98
2023-04-28T02:24:52.673Z,100043.92
2023-04-28T02:25:14.460Z,100041.82
2023-04-28T02:25:36.196Z,100043.61
2023-04-28T02:26:02.015Z,100042.30
2023-04-28T02:26:24.519Z,100044.27
2023-04-28T02:26:46.610Z,100042.38
2023-04-28T02:27:08.599Z,100044.55
2023-04-28T02:27:30.585Z,100044.95
2023-04-28T02:27:52.776Z,100046.66
2023-04-28T02:28:15.380Z,100047.11
2023-04-28T02:28:37.081Z,100047.05
2023-04-28T02:29:01.119Z,100045.86
2023-04-28T02:29:27.809Z,100048.35
2023-04-28T02:29:49.680Z,100050.06
2023-04-28T02:30:12.388Z,100046.23
2023-04-28T02:30:34.291Z,100048.58
2023-04-28T02:31:09.644Z,100049.63
2023-04-28T02:31:31.884Z,100045.65
2023-04-28T02:31:54.250Z,100047.32
2023-04-28T02:32:16.242Z,100046.79
2023-04-28T02:32:38.249Z,100050.19
2023-04-28T02:33:00.059Z,100047.49
2023-04-28T02:33:21.923Z,100046.45
2023-04-28T02:33:43.786Z,100043.93
2023-04-28T02:34:05.987Z,100045.09
2023-04-28T02:34:27.767Z,100047.14
2023-04-28T02:34:53.161Z,100047.09
2023-04-28T02:35:15.120Z,100046.62
2023-04-28T02:35:36.902Z,100046.71
2023-04-28T02:35:59.608Z,100039.00
2023-04-28T02:36:21.389Z,100044.31
2023-04-28T02:36:43.176Z,100043.44
2023-04-28T02:37:04.958Z,100045.31
2023-04-28T02:37:27.492Z,100043.25
2023-04-28T02:37:49.241Z,100042.46
2023-04-28T02:38:11.030Z,100045.90
2023-04-28T02:38:32.918Z,100045.66
2023-04-28T02:38:54.800Z,100044.52
2023-04-28T02:39:16.794Z,100043.75
2023-04-28T02:39:38.552Z,100043.08
2023-04-28T02:40:00.359Z,100042.91
2023-04-28T02:40:22.152Z,100045.72
2023-04-28T02:40:43.927Z,100042.23
2023-04-28T02:41:06.736Z,100042.30
2023-04-28T02:41:30.260Z,100046.55
2023-04-28T02:41:52.596Z,100041.39
2023-04-28T02:42:14.541Z,100043.40
2023-04-28T02:42:36.332Z,100043.37
2023-04-28T02:42:58.111Z,100047.39
2023-04-28T02:43:19.894Z,100045.59
2023-04-28T02:43:42.415Z,100045.27
2023-04-28T02:44:04.285Z,100045.20
2023-04-28T02:44:26.375Z,100046.65
2023-04-28T02:44:48.166Z,100047.55
2023-04-28T02:45:10.233Z,100043.88
2023-04-28T02:45:32.357Z,100044.16
2023-04-28T02:45:54.166Z,100043.89
2023-04-28T02:46:16.249Z,100044.52
2023-04-28T02:46:38.156Z,100047.25
2023-04-28T02:47:00.777Z,100043.09
2023-04-28T02:47:22.757Z,100044.13
2023-04-28T02:47:44.741Z,100040.55
2023-04-28T02:48:07.129Z,100038.80
2023-04-28T02:48:29.077Z,100042.39
2023-04-28T02:48:51.273Z,100042.63
2023-04-28T02:49:13.665Z,100044.14
2023-04-28T02:49:35.449Z,100045.00
2023-04-28T02:49:57.233Z,100047.07
2023-04-28T02:50:19.536Z,100044.27
2023-04-28T02:50:41.263Z,100042.52
2023-04-28T02:51:03.225Z,100041.83
2023-04-28T02:51:25.396Z,100040.96
2023-04-28T02:51:47.179Z,100043.21
2023-04-28T02:52:09.272Z,100044.55
2023-04-28T02:52:31.055Z,100040.16
2023-04-28T02:52:52.847Z,100044.10
2023-04-28T02:53:15.007Z,100041.46
2023-04-28T02:53:36.924Z,100043.60
2023-04-28T02:53:58.812Z,100039.84
2023-04-28T02:54:29.694Z,100043.23
2023-04-28T02:54:54.751Z,100040.15
2023-04-28T02:55:23.969Z,100038.19
2023-04-28T02:55:46.620Z,100039.42
2023-04-28T02:56:08.396Z,100038.10
2023-04-28T02:56:30.299Z,100040.23
2023-04-28T02:56:52.473Z,100036.67
2023-04-28T02:57:14.255Z,100040.54
2023-04-28T02:57:36.272Z,100038.53
2023-04-28T02:57:58.165Z,100038.89
2023-04-28T02:58:19.954Z,100038.16
2023-04-28T02:58:41.801Z,100037.25
2023-04-28T02:59:04.201Z,100038.06
2023-04-28T02:59:27.316Z,100037.29
2023-04-28T02:59:49.202Z,100036.80
2023-04-28T03:00:11.510Z,100036.86
2023-04-28T03:00:38.806Z,100035.88
2023-04-28T03:01:01.364Z,100032.98
2023-04-28T03:01:23.560Z,100036.59
2023-04-28T03:01:46.088Z,100035.10
2023-04-28T03:02:09.419Z,100036.08
2023-04-28T03:02:31.489Z,100035.90
2023-04-28T03:02:53.528Z,100037.58
2023-04-28T03:03:15.697Z,100033.84
2023-04-28T03:03:37.737Z,100037.23
2023-04-28T03:04:00.515Z,100038.80
2023-04-28T03:04:22.884Z,100036.19
2023-04-28T03:04:44.955Z,100038.98
2023-04-28T03:05:07.192Z,100038.37
2023-04-28T03:05:29.060Z,100040.84
2023-04-28T03:05:50.841Z,100039.14
2023-04-28T03:06:12.949Z,100040.77
2023-04-28T03:06:34.823Z,100037.48
2023-04-28T03:06:56.603Z,100035.77
2023-04-28T03:07:18.602Z,100037.59
2023-04-28T03:07:40.687Z,100038.90
2023-04-28T03:08:02.349Z,100041.66
2023-04-28T03:08:24.356Z,100037.00
2023-04-28T03:08:46.346Z,100037.16
2023-04-28T03:09:08.538Z,100039.49
2023-04-28T03:09:30.643Z,100038.42
2023-04-28T03:09:52.515Z,100041.66
2023-04-28T03:10:14.313Z,100037.84
2023-04-28T03:10:36.196Z,100045.14
2023-04-28T03:10:58.009Z,100042.27
2023-04-28T03:11:19.860Z,100042.48
2023-04-28T03:11:41.762Z,100042.14
2023-04-28T03:12:04.044Z,100041.90
2023-04-28T03:12:26.439Z,100039.79
2023-04-28T03:12:48.196Z,100039.29
2023-04-28T03:13:09.891Z,100043.55
2023-04-28T03:13:31.616Z,100039.35
2023-04-28T03:13:53.580Z,100037.77
2023-04-28T03:14:16.661Z,100041.67
2023-04-28T03:14:38.682Z,100037.70
2023-04-28T03:15:01.492Z,100038.69
2023-04-28T03:15:23.276Z,100042.23
2023-04-28T03:15:45.047Z,100043.72
2023-04-28T03:16:08.211Z,100042.54
2023-04-28T03:16:30.129Z,100041.28
2023-04-28T03:16:52.053Z,100042.80
2023-04-28T03:17:14.277Z,100040.31
2023-04-28T03:17:39.339Z,100042.48
2023-04-28T03:18:01.340Z,100042.16
2023-04-28T03:18:24.004Z,100042.81
2023-04-28T03:18:45.792Z,100041.26
2023-04-28T03:19:07.561Z,100042.08
2023-04-28T03:19:29.449Z,100041.82
2023-04-28T03:19:51.375Z,100040.82
2023-04-28T03:20:13.432Z,100040.61
2023-04-28T03:20:35.414Z,100040.23
2023-04-28T03:20:57.170Z,100039.11
2023-04-28T03:21:21.132Z,100038.23
2023-04-28T03:21:42.919Z,100039.42
2023-04-28T03:22:07.631Z,100033.54
2023-04-28T03:22:29.451Z,100039.23
2023-04-28T03:22:51.196Z,100035.21
2023-04-28T03:23:13.325Z,100036.70
2023-04-28T03:23:36.477Z,100034.89
2023-04-28T03:23:58.229Z,100032.95
2023-04-28T03:24:20.112Z,100033.04
2023-04-28T03:24:42.009Z,100032.17
2023-04-28T03:25:03.883Z,100032.96
2023-04-28T03:25:27.716Z,100032.57
2023-04-28T03:25:49.466Z,100033.14
2023-04-28T03:26:11.490Z,100030.77
2023-04-28T03:26:33.305Z,100029.64
2023-04-28T03:26:55.160Z,100031.38
2023-04-28T03:27:16.897Z,100030.00
2023-04-28T03:27:38.728Z,100031.16
2023-04-28T03:28:00.624Z,100028.58
2023-04-28T03:28:22.414Z,100028.42
2023-04-28T03:28:44.406Z,100026.60
2023-04-28T03:29:06.202Z,100023.41
2023-04-28T03:29:28.058Z,100023.96
2023-04-28T03:29:49.780Z,100027.20
2023-04-28T03:30:12.066Z,100022.02
2023-04-28T03:30:33.823Z,100023.97
2023-04-28T03:30:56.219Z,100023.39
2023-04-28T03:31:18.009Z,100022.93
2023-04-28T03:31:39.875Z,100025.55
2023-04-28T03:32:01.719Z,100020.70
2023-04-28T03:32:23.780Z,100018.07
2023-04-28T03:32:46.104Z,100019.08
2023-04-28T03:33:08.242Z,100018.02
2023-04-28T03:33:30.349Z,100019.54
2023-04-28T03:33:52.442Z,100017.72
2023-04-28T03:34:14.706Z,100015.63
2023-04-28T03:34:37.033Z,100016.41
2023-04-28T03:34:59.038Z,100014.74
2023-04-28T03:35:20.907Z,100010.14
2023-04-28T03:35:43.334Z,100010.23
2023-04-28T03:36:05.829Z,100010.86
2023-04-28T03:36:27.806Z,100009.55
2023-04-28T03:36:56.640Z,100009.41
2023-04-28T03:37:22.852Z,100007.52
2023-04-28T03:37:44.824Z,100005.91
2023-04-28T03:38:07.313Z,100007.41
2023-04-28T03:38:29.401Z,100003.19
2023-04-28T03:38:51.190Z,100006.95
2023-04-28T03:39:13.278Z,100000.38
2023-04-28T03:39:35.250Z,99997.92
2023-04-28T03:39:57.080Z,100001.48
2023-04-28T03:40:19.343Z,100004.18
2023-04-28T03:41:07.522Z,100004.48
2023-04-28T03:41:58.450Z,100002.20
2023-04-28T03:42:49.381Z,100006.30
2023-04-28T03:43:18.959Z,100008.39
2023-04-28T03:44:13.258Z,100011.82
2023-04-28T03:44:42.951Z,100010.26
2023-04-28T03:45:05.107Z,100013.18
2023-04-28T03:45:27.110Z,100009.59
2023-04-28T03:45:49.758Z,100010.66
2023-04-28T03:46:11.605Z,100010.50
2023-04-28T03:46:34.793Z,100011.45
2023-04-28T03:46:57.227Z,100009.54
2023-04-28T03:47:19.090Z,100010.91
2023-04-28T03:47:40.972Z,100008.46
2023-04-28T03:48:02.765Z,100005.91
2023-04-28T03:48:25.010Z,100006.17
2023-04-28T03:48:46.928Z,100007.16
2023-04-28T03:49:09.040Z,100001.92
2023-04-28T03:49:30.913Z,100001.89
2023-04-28T03:49:53.006Z,100000.62
2023-04-28T03:50:14.794Z,99996.67
2023-04-28T03:50:36.572Z,99996.15
2023-04-28T03:50:58.711Z,99993.55
2023-04-28T03:51:20.652Z,99990.93
2023-04-28T03:51:42.741Z,99992.12
2023-04-28T03:52:04.771Z,99991.93
2023-04-28T03:52:27.677Z,99987.61
2023-04-28T03:52:50.243Z,99987.77
2023-04-28T03:53:12.236Z,99985.50
2023-04-28T03:53:34.033Z,99990.15
2023-04-28T03:53:56.210Z,99979.45
2023-04-28T03:54:18.169Z,99980.14
2023-04-28T03:54:41.630Z,99978.98
2023-04-28T03:55:03.736Z,99981.10
2023-04-28T03:55:26.272Z,99979.84
2023-04-28T03:55:48.074Z,99975.96
2023-04-28T03:56:10.096Z,99974.90
2023-04-28T03:56:32.190Z,99973.57
2023-04-28T03:56:55.706Z,99971.31
2023-04-28T03:57:17.701Z,99970.11
2023-04-28T03:57:39.495Z,99970.56
2023-04-28T03:58:01.568Z,99967.64
2023-04-28T03:58:23.364Z,99970.43
2023-04-28T03:58:45.158Z,99968.21
2023-04-28T03:59:06.890Z,99964.24
2023-04-28T03:59:28.702Z,99968.34
2023-04-28T03:59:51.317Z,99964.61
2023-04-28T04:00:13.514Z,99963.02
2023-04-28T04:00:38.038Z,99965.91
2023-04-28T04:01:01.233Z,99961.95
2023-04-28T04:01:23.046Z,99956.52
2023-04-28T04:01:45.039Z,99958.80
2023-04-28T04:02:06.831Z,99962.84
2023-04-28T04:02:28.821Z,99961.56
2023-04-28T04:02:50.831Z,99961.79
2023-04-28T04:03:13.131Z,99963.58
2023-04-28T04:03:35.436Z,99963.86
2023-04-28T04:03:57.653Z,99964.48
2023-04-28T04:04:20.136Z,99963.52
2023-04-28T04:04:42.609Z,99964.66
2023-04-28T04:05:05.166Z,99963.92
2023-04-28T04:05:27.188Z,99964.82
2023-04-28T04:05:49.819Z,99964.62
2023-04-28T04:06:11.977Z,99961.23
2023-04-28T04:06:34.190Z,99963.64
2023-04-28T04:06:56.567Z,99962.73
2023-04-28T04:07:18.508Z,99961.03
2023-04-28T04:07:40.648Z,99963.75
2023-04-28T04:08:03.250Z,99955.76
2023-04-28T04:08:24.942Z,99959.52
2023-04-28T04:08:46.701Z,99953.70
2023-04-28T04:09:10.263Z,99954.44
2023-04-28T04:09:32.845Z,99952.11
2023-04-28T04:09:54.729Z,99950.95
2023-04-28T04:10:16.512Z,99950.48
2023-04-28T04:10:39.114Z,99948.85
2023-04-28T04:11:01.024Z,99950.31
2023-04-28T04:11:22.787Z,99951.88
2023-04-28T04:11:44.985Z,99951.05
2023-04-28T04:12:07.027Z,99951.16
2023-04-28T04:12:28.857Z,99949.70
2023-04-28T04:12:50.640Z,99954.99
2023-04-28T04:13:12.955Z,99954.56
2023-04-28T04:13:36.399Z,99955.75
2023-04-28T04:14:00.112Z,99953.88
2023-04-28T04:14:21.978Z,99952.76
2023-04-28T04:14:44.676Z,99952.71
2023-04-28T04:15:07.144Z,99953.61
2023-04-28T04:15:29.269Z,99953.68
2023-04-28T04:15:52.933Z,99954.38
2023-04-28T04:16:16.324Z,99958.56
2023-04-28T04:16:38.186Z,99954.97
2023-04-28T04:17:00.144Z,99958.61
2023-04-28T04:17:22.645Z,99962.05
2023-04-28T04:17:44.573Z,99961.95
2023-04-28T04:18:06.637Z,99967.89
2023-04-28T04:18:44.208Z,99970.83
2023-04-28T04:19:18.265Z,99964.32
2023-04-28T04:19:42.841Z,99974.30
2023-04-28T04:20:06.431Z,99977.83
2023-04-28T04:20:28.228Z,99981.08
2023-04-28T04:20:50.739Z,99977.70
2023-04-28T04:21:12.605Z,99982.27
2023-04-28T04:21:34.797Z,99980.63
2023-04-28T04:21:56.888Z,99983.87
2023-04-28T04:22:19.194Z,99981.61